Latest Weather Observations for Lucas Heights

IDN60901

Issued at 6:41 am EST Sunday 31 July 2016 (issued every 10 minutes, with the page automatically refreshed every 10 minutes)

About weather observations | Map of Sydney area stations | Latest observations for Sydney area | Other Formats
Station Details ID: 066023 Name: LUCAS HEIGHTS AWS Lat: -34.05 Lon: 150.98 Height: 140.0 m
Data from the previous 72 hours. | See also: Recent months for locations in New South Wales
Date/Time
EST
Temp
°C
App
Temp
°C
Dew
Point
°C
Rel
Hum
%
Delta-T
°C
Wind Press
QNH
hPa
Press
MSL
hPa
Rain since
9am
mm
Dir  Spd
km/h
Gust
km/h
Spd
kts
Gust
kts
31/06:30am 10.3 7.2 7.1 80 1.5 W 13 15 7 8 1016.6 - 0.0
31/06:15am 10.1 6.6 7.1 81 1.4 W 15 17 8 9 1016.6 - 0.0
31/06:00am 9.6 6.8 6.9 83 1.3 WNW 11 13 6 7 1016.5 - 0.0
31/05:45am 9.5 6.4 7.1 85 1.1 NW 13 13 7 7 1016.4 - 0.0
31/05:30am 9.1 6.3 7.0 87 1.0 NW 11 13 6 7 1016.3 - 0.0
31/05:15am 8.8 5.9 6.7 87 1.0 NW 11 13 6 7 1016.2 - 0.0
31/05:00am 9.0 6.2 6.8 86 1.0 NNW 11 13 6 7 1016.2 - 0.0
31/04:45am 9.0 6.2 6.8 86 1.0 NNW 11 13 6 7 1016.2 - 0.0
31/04:30am 9.1 6.3 6.9 86 1.0 N 11 13 6 7 1016.2 - 0.0
31/04:15am 9.3 6.5 7.0 85 1.1 N 11 13 6 7 1016.4 - 0.0
31/04:00am 9.2 6.4 6.8 85 1.1 N 11 13 6 7 1016.3 - 0.0
31/03:45am 9.6 7.2 7.0 84 1.2 NNW 9 11 5 6 1016.6 - 0.0
31/03:30am 10.1 7.4 7.3 83 1.3 NW 11 15 6 8 1017.0 - 0.0
31/03:15am 10.2 6.7 7.4 83 1.3 WNW 15 19 8 10 1017.3 - 0.0
31/03:00am 10.4 6.6 7.5 82 1.4 WNW 17 19 9 10 1017.5 - 0.0
31/02:45am 10.5 7.1 7.7 83 1.4 WNW 15 19 8 10 1017.7 - 0.0
31/02:30am 10.6 8.0 7.8 83 1.4 W 11 17 6 9 1017.9 - 0.0
31/02:15am 10.8 7.8 7.9 82 1.4 WNW 13 17 7 9 1018.0 - 0.0
31/02:00am 10.8 7.9 8.0 83 1.4 NW 13 19 7 10 1018.1 - 0.0
31/01:45am 10.9 7.6 8.0 82 1.4 NNW 15 19 8 10 1018.1 - 0.0
31/01:30am 11.0 7.0 8.1 82 1.4 NNW 19 22 10 12 1018.2 - 0.0
31/01:15am 11.1 7.1 8.1 82 1.5 N 19 22 10 12 1018.3 - 0.0
31/01:00am 11.0 7.3 8.0 82 1.5 N 17 20 9 11 1018.3 - 0.0
31/12:45am 11.0 7.3 8.0 82 1.5 N 17 19 9 10 1018.4 - 0.0
31/12:30am 11.3 7.6 8.0 80 1.6 NNW 17 19 9 10 1018.6 - 0.0
31/12:15am 11.4 7.7 8.0 79 1.7 NNW 17 19 9 10 1018.9 - 0.0
31/12:00am 11.6 8.0 8.2 79 1.7 NNW 17 20 9 11 1019.1 - 0.0
 
Date/Time
EST
Temp
°C
App
Temp
°C
Dew
Point
°C
Rel
Hum
%
Delta-T
°C
Wind Press
QNH
hPa
Press
MSL
hPa
Rain since
9am
mm
Dir  Spd
km/h
Gust
km/h
Spd
kts
Gust
kts
30/11:45pm 11.7 7.7 8.4 80 1.6 NW 19 20 10 11 1019.6 - 0.0
30/11:30pm 11.4 7.4 8.4 82 1.5 NW 19 22 10 12 1019.8 - 0.0
30/11:15pm 10.1 6.0 7.8 86 1.1 NW 19 20 10 11 1019.7 - 0.0
30/11:00pm 8.6 4.8 5.7 82 1.3 NW 15 19 8 10 1019.5 - 0.0
30/10:45pm 10.0 6.3 6.3 78 1.7 WNW 15 19 8 10 1019.7 - 0.0
30/10:30pm 11.8 8.1 8.1 78 1.8 WNW 17 19 9 10 1019.8 - 0.0
30/10:15pm 11.6 8.1 8.6 82 1.5 WNW 17 19 9 10 1020.0 - 0.0
30/10:00pm 9.6 6.1 7.3 85 1.1 WNW 15 17 8 9 1020.0 - 0.0
30/09:45pm 9.8 7.1 7.4 85 1.1 NW 11 13 6 7 1019.9 - 0.0
30/09:30pm 9.1 5.9 6.8 85 1.1 NNW 13 15 7 8 1019.8 - 0.0
30/09:15pm 9.1 6.6 6.5 84 1.2 N 9 13 5 7 1019.8 - 0.0
30/09:00pm 9.6 7.6 6.9 83 1.3 N 7 9 4 5 1019.8 - 0.0
30/08:45pm 9.7 7.3 6.8 82 1.4 NNE 9 13 5 7 1019.8 - 0.0
30/08:30pm 9.7 6.5 6.7 81 1.4 NE 13 15 7 8 1019.8 - 0.0
30/08:15pm 10.0 6.8 6.9 81 1.5 NE 13 17 7 9 1019.8 - 0.0
30/08:00pm 10.0 6.8 6.7 80 1.6 NE 13 17 7 9 1020.0 - 0.0
30/07:45pm 10.0 6.3 6.5 79 1.6 NE 15 17 8 9 1020.0 - 0.0
30/07:30pm 10.5 7.2 6.5 76 1.9 NE 13 17 7 9 1020.0 - 0.0
30/07:15pm 10.8 7.2 6.7 76 1.9 NE 15 17 8 9 1020.2 - 0.0
30/07:00pm 11.1 7.9 6.7 74 2.1 ENE 13 15 7 8 1020.3 - 0.0
30/06:45pm 11.4 8.5 6.6 72 2.3 ENE 11 15 6 8 1020.3 - 0.0
30/06:30pm 11.6 8.7 6.4 70 2.5 ENE 11 13 6 7 1020.1 - 0.0
30/06:15pm 12.1 9.2 6.3 67 2.8 E 11 13 6 7 1019.9 - 0.0
30/06:00pm 12.5 9.5 6.2 65 3.0 E 11 15 6 8 1019.8 - 0.0
30/05:45pm 13.0 10.0 6.1 63 3.3 E 11 15 6 8 1019.7 - 0.0
30/05:30pm 13.1 10.5 6.1 62 3.3 E 9 13 5 7 1019.7 - 0.0
30/05:15pm 13.8 11.2 6.3 60 3.6 E 9 11 5 6 1019.9 - 0.0
30/05:00pm 14.6 12.0 6.3 57 4.0 E 9 11 5 6 1019.9 - 0.0
30/04:45pm 15.2 12.7 6.7 57 4.2 E 9 13 5 7 1020.0 - 0.0
30/04:30pm 15.5 13.4 6.8 56 4.3 E 7 13 4 7 1020.0 - 0.0
30/04:15pm 16.0 14.0 7.2 56 4.4 ESE 7 13 4 7 1020.0 - 0.0
30/04:00pm 16.1 13.7 7.2 55 4.4 E 9 17 5 9 1020.0 - 0.0
30/03:45pm 16.2 14.2 6.9 54 4.6 ENE 7 13 4 7 1020.0 - 0.0
30/03:30pm 16.5 14.5 7.2 54 4.7 ENE 7 13 4 7 1020.2 - 0.0
30/03:15pm 16.1 14.7 7.3 56 4.4 ESE 4 11 2 6 1020.3 - 0.0
30/03:00pm 15.5 14.0 6.8 56 4.3 SE 4 6 2 3 1020.3 - 0.0
30/02:45pm 15.7 13.8 6.7 55 4.4 ESE 6 7 3 4 1020.4 - 0.0
30/02:30pm 15.8 13.9 6.7 54 4.5 SE 6 9 3 5 1020.5 - 0.0
30/02:15pm 16.0 14.0 6.9 54 4.5 SE 7 11 4 6 1020.5 - 0.0
30/02:00pm 15.7 13.6 6.7 55 4.4 SE 7 11 4 6 1020.6 - 0.0
30/01:45pm 15.8 13.2 6.2 53 4.7 SE 9 13 5 7 1020.7 - 0.0
30/01:30pm 16.2 13.6 6.3 52 4.9 SE 9 13 5 7 1020.8 - 0.0
30/01:15pm 16.0 13.0 6.2 52 4.8 SE 11 15 6 8 1021.0 - 0.0
30/01:00pm 16.0 13.0 6.1 52 4.8 SE 11 17 6 9 1021.2 - 0.0
30/12:45pm 16.4 14.1 5.9 50 5.1 SE 7 11 4 6 1021.3 - 0.0
30/12:30pm 17.0 14.8 6.4 49 5.2 SE 7 13 4 7 1021.4 - 0.0
30/12:15pm 16.5 15.0 6.7 52 4.9 ESE 4 11 2 6 1021.7 - 0.0
30/12:00pm 16.3 14.4 6.9 53 4.7 WNW 6 9 3 5 1021.9 - 0.0
30/11:45am 16.3 14.5 7.2 55 4.5 W 6 11 3 6 1022.1 - 0.0
30/11:30am 15.7 13.8 6.8 55 4.4 WNW 6 11 3 6 1022.3 - 0.0
30/11:15am 15.0 13.0 6.3 56 4.2 WNW 6 11 3 6 1022.5 - 0.0
30/11:00am 14.5 12.5 6.2 57 4.0 WNW 6 11 3 6 1022.7 - 0.0
30/10:45am 13.9 11.6 5.9 58 3.8 W 7 11 4 6 1022.9 - 0.0
30/10:30am 13.3 10.6 5.7 60 3.6 W 9 13 5 7 1023.0 - 0.0
30/10:15am 12.7 10.0 5.4 61 3.4 W 9 13 5 7 1023.1 - 0.0
30/10:00am 12.2 9.0 5.1 62 3.3 W 11 13 6 7 1023.1 - 0.0
30/09:45am 11.7 8.5 4.9 63 3.1 W 11 17 6 9 1023.1 - 0.0
30/09:30am 11.4 8.5 4.8 64 3.0 W 9 13 5 7 1023.1 - 0.0
30/09:15am 10.9 7.6 4.6 65 2.9 W 11 17 6 9 1023.1 - 0.0
30/09:00am 10.2 6.5 4.2 66 2.7 W 13 19 7 10 1023.1 - 0.0
30/08:45am 9.7 5.9 4.0 67 2.5 W 13 19 7 10 1023.1 - 0.0
30/08:30am 9.3 5.5 3.9 69 2.4 WSW 13 19 7 10 1023.1 - 0.0
30/08:15am 8.6 4.0 3.7 71 2.1 WSW 17 22 9 12 1022.9 - 0.0
30/08:00am 8.0 3.0 3.4 73 2.0 WSW 19 22 10 12 1022.8 - 0.0
30/07:45am 7.4 2.7 3.3 75 1.7 WSW 17 20 9 11 1022.8 - 0.0
30/07:30am 6.8 2.1 2.9 76 1.6 SW 17 20 9 11 1022.7 - 0.0
30/07:15am 6.7 1.4 2.8 76 1.6 SW 20 22 11 12 1022.6 - 0.0
30/07:00am 6.7 1.6 2.8 76 1.6 SW 19 22 10 12 1022.5 - 0.0
30/06:45am 7.0 1.9 2.9 75 1.7 SW 19 22 10 12 1022.4 - 0.0
30/06:30am 7.1 2.4 2.9 74 1.8 SW 17 20 9 11 1022.1 - 0.0
30/06:15am 7.3 2.2 2.9 73 1.9 SW 19 22 10 12 1021.9 - 0.0
30/06:00am 7.5 2.4 2.9 72 1.9 SW 19 22 10 12 1021.7 - 0.0
30/05:45am 7.7 2.6 3.0 72 2.0 SW 19 22 10 12 1021.6 - 0.0
30/05:30am 7.8 2.7 3.0 71 2.0 SW 19 22 10 12 1021.5 - 0.0
30/05:15am 8.0 2.9 3.2 72 2.1 SW 19 24 10 13 1021.4 - 0.0
30/05:00am 7.7 2.6 3.1 72 2.0 SW 19 24 10 13 1021.3 - 0.0
30/04:45am 7.7 3.0 3.0 72 2.0 SW 17 22 9 12 1021.2 - 0.0
30/04:30am 7.7 3.0 3.0 72 2.0 SW 17 22 9 12 1021.1 - 0.0
30/04:15am 7.8 3.5 3.0 71 2.0 SW 15 22 8 12 1021.1 - 0.0
30/04:00am 7.8 3.1 3.0 71 2.0 SW 17 24 9 13 1021.1 - 0.0
30/03:45am 7.7 2.6 3.0 72 2.0 SW 19 24 10 13 1021.1 - 0.0
30/03:30am 7.8 2.7 3.0 71 2.0 SW 19 24 10 13 1021.1 - 0.0
30/03:15am 7.9 3.2 3.0 71 2.1 WSW 17 22 9 12 1021.1 - 0.0
30/03:00am 8.0 2.9 3.0 71 2.1 WSW 19 28 10 15 1021.1 - 0.0
30/02:45am 8.1 2.8 3.0 70 2.2 WSW 20 26 11 14 1021.1 - 0.0
30/02:30am 8.2 3.1 3.0 70 2.2 WSW 19 24 10 13 1021.1 - 0.0
30/02:15am 8.3 3.6 3.0 69 2.3 WSW 17 22 9 12 1021.2 - 0.0
30/02:00am 8.4 3.7 3.0 69 2.3 WSW 17 22 9 12 1021.2 - 0.0
30/01:45am 8.5 3.4 3.0 68 2.4 WSW 19 24 10 13 1021.2 - 0.0
30/01:30am 8.6 3.5 3.1 68 2.4 SW 19 26 10 14 1021.2 - 0.0
30/01:15am 8.7 4.0 3.1 68 2.4 SW 17 28 9 15 1021.3 - 0.0
30/01:00am 8.8 3.7 3.2 68 2.4 SW 19 28 10 15 1021.4 - 0.0
30/12:45am 8.8 3.5 3.2 68 2.4 SW 20 30 11 16 1021.3 - 0.0
30/12:30am 8.6 3.5 3.2 69 2.3 WSW 19 28 10 15 1021.2 - 0.0
30/12:15am 8.4 3.3 2.9 68 2.3 WSW 19 28 10 15 1021.0 - 0.0
30/12:00am 8.6 3.5 3.1 68 2.4 WSW 19 24 10 13 1021.0 - 0.0
 
Date/Time
EST
Temp
°C
App
Temp
°C
Dew
Point
°C
Rel
Hum
%
Delta-T
°C
Wind Press
QNH
hPa
Press
MSL
hPa
Rain since
9am
mm
Dir  Spd
km/h
Gust
km/h
Spd
kts
Gust
kts
29/11:45pm 8.7 3.4 3.1 68 2.4 WSW 20 30 11 16 1021.1 - 0.0
29/11:30pm 8.7 3.6 3.1 68 2.4 WSW 19 26 10 14 1021.2 - 0.0
29/11:15pm 9.0 4.3 3.1 66 2.5 WSW 17 24 9 13 1021.1 - 0.0
29/11:00pm 9.0 3.9 3.3 67 2.5 WSW 19 28 10 15 1021.0 - 0.0
29/10:45pm 8.9 4.6 3.2 67 2.5 WSW 15 24 8 13 1021.0 - 0.0
29/10:30pm 9.1 4.4 3.3 67 2.5 WSW 17 28 9 15 1020.8 - 0.0
29/10:15pm 9.3 3.7 3.4 66 2.6 WSW 22 35 12 19 1020.8 - 0.0
29/10:00pm 9.4 3.0 3.4 66 2.6 WSW 26 37 14 20 1020.7 - 0.0
29/09:45pm 9.6 3.3 3.5 66 2.7 WSW 26 41 14 22 1020.6 - 0.0
29/09:30pm 9.6 3.6 3.4 65 2.7 WSW 24 35 13 19 1020.6 - 0.0
29/09:15pm 9.8 3.8 3.3 64 2.8 WSW 24 37 13 20 1020.5 - 0.0
29/09:00pm 10.0 3.6 3.3 63 2.9 WSW 26 44 14 24 1020.4 - 0.0
29/08:45pm 10.0 3.6 3.3 63 2.9 WSW 26 39 14 21 1020.3 - 0.0
29/08:30pm 10.0 3.2 3.3 63 2.9 WSW 28 39 15 21 1020.2 - 0.0
29/08:15pm 10.0 3.6 3.3 63 2.9 WSW 26 37 14 20 1020.2 - 0.0
29/08:00pm 9.9 4.2 3.1 62 3.0 WSW 22 33 12 18 1020.1 - 0.0
29/07:45pm 10.0 4.9 3.0 62 3.0 WSW 19 30 10 16 1020.0 - 0.0
29/07:30pm 10.3 5.0 2.9 60 3.2 WSW 20 28 11 15 1019.9 - 0.0
29/07:15pm 10.4 5.1 2.8 59 3.3 WSW 20 28 11 15 1019.8 - 0.0
29/07:00pm 10.8 6.8 2.6 57 3.6 WSW 13 26 7 14 1019.7 - 0.0
29/06:45pm 11.3 6.5 2.6 55 3.8 WSW 17 28 9 15 1019.5 - 0.0
29/06:30pm 11.8 6.6 2.5 53 4.1 WSW 19 37 10 20 1019.2 - 0.0
29/06:15pm 12.1 5.6 2.4 51 4.2 W 26 37 14 20 1018.9 - 0.0
29/06:00pm 12.2 5.7 2.4 51 4.3 W 26 41 14 22 1018.6 - 0.0
29/05:45pm 12.4 6.6 2.5 51 4.3 W 22 35 12 19 1018.4 - 0.0
29/05:30pm 12.8 6.3 2.7 50 4.5 W 26 41 14 22 1018.1 - 0.0
29/05:15pm 13.2 6.7 2.6 48 4.7 W 26 37 14 20 1018.0 - 0.0
29/05:00pm 13.8 7.7 2.5 46 5.0 W 24 39 13 21 1018.1 - 0.0
29/04:45pm 14.5 8.8 2.7 45 5.3 W 22 35 12 19 1018.0 - 0.0
29/04:30pm 15.0 9.2 2.5 43 5.6 W 22 41 12 22 1018.1 - 0.0
29/04:15pm 15.4 8.9 2.7 42 5.7 W 26 37 14 20 1018.1 - 0.0
29/04:00pm 15.9 9.8 2.9 41 5.9 W 24 35 13 19 1018.1 - 0.0
29/03:45pm 16.0 10.3 2.7 41 6.0 W 22 35 12 19 1018.1 - 0.0
29/03:30pm 16.3 9.4 2.6 39 6.2 W 28 41 15 22 1018.1 - 0.0
29/03:15pm 16.8 11.1 2.8 39 6.4 W 22 32 12 17 1018.1 - 0.0
29/03:00pm 16.7 10.5 2.4 38 6.5 W 24 35 13 19 1018.1 - 0.0
29/02:45pm 16.6 10.5 2.5 38 6.4 W 24 33 13 18 1018.0 - 0.0
29/02:30pm 16.9 11.5 2.2 37 6.7 W 20 30 11 16 1018.0 - 0.0
29/02:15pm 17.0 11.2 2.1 36 6.7 W 22 30 12 16 1018.1 - 0.0
29/02:00pm 16.7 10.1 2.3 38 6.5 W 26 39 14 21 1018.2 - 0.0
29/01:45pm 16.4 11.0 2.7 40 6.2 WNW 20 30 11 16 1018.4 - 0.0
29/01:30pm 16.0 10.8 2.4 40 6.1 WNW 19 26 10 14 1018.6 - 0.0
29/01:15pm 15.6 10.7 2.1 40 6.0 WNW 17 26 9 14 1018.9 - 0.0
29/01:00pm 15.5 10.6 2.1 40 6.0 WNW 17 26 9 14 1019.2 - 0.0
29/12:45pm 15.3 10.8 2.2 41 5.9 WNW 15 24 8 13 1019.5 - 0.0
29/12:30pm 14.8 10.8 3.1 45 5.3 WNW 13 22 7 12 1019.9 - 0.0
29/12:15pm 14.3 9.6 2.9 46 5.1 WNW 17 24 9 13 1020.4 - 0.0
29/12:00pm 14.1 10.2 3.2 48 4.9 WNW 13 19 7 10 1020.6 - 0.0
29/11:45am 13.5 9.2 3.0 49 4.7 W 15 22 8 12 1020.9 - 0.0
29/11:30am 13.1 8.8 3.1 50 4.5 W 15 22 8 12 1021.2 - 0.0
29/11:15am 12.7 8.7 2.8 51 4.4 W 13 19 7 10 1021.4 - 0.0
29/11:00am 12.2 7.8 2.9 53 4.1 W 15 24 8 13 1021.6 - 0.0
29/10:45am 12.0 7.7 3.0 54 4.0 W 15 22 8 12 1021.9 - 0.0
29/10:30am 11.5 6.1 2.7 54 3.8 W 20 28 11 15 1022.1 - 0.0
29/10:15am 11.2 6.4 2.8 56 3.7 WNW 17 24 9 13 1022.2 - 0.0
29/10:00am 10.7 5.5 2.6 57 3.5 W 19 24 10 13 1022.3 - 0.0
29/09:45am 10.5 5.8 2.9 59 3.3 W 17 24 9 13 1022.4 - 0.0
29/09:30am 10.2 5.1 2.8 60 3.2 W 19 24 10 13 1022.4 - 0.0
29/09:15am 9.7 4.4 2.8 62 3.0 W 20 28 11 15 1022.6 - 0.0
29/09:00am 9.3 3.6 2.8 64 2.8 WSW 22 32 12 17 1022.7 - 0.0
29/08:45am 8.9 2.8 2.7 65 2.6 WSW 24 37 13 20 1022.7 - 0.0
29/08:30am 8.5 3.3 2.7 67 2.5 WSW 19 26 10 14 1022.7 - 0.0
29/08:15am 7.8 2.4 2.5 69 2.2 WSW 20 28 11 15 1022.7 - 0.0
29/08:00am 7.1 1.3 2.3 71 2.0 WSW 22 30 12 16 1022.8 - 0.0
29/07:45am 6.5 1.0 2.1 73 1.8 WSW 20 26 11 14 1022.8 - 0.0
29/07:30am 5.8 0.9 1.8 75 1.6 WSW 17 22 9 12 1022.7 - 0.0
29/07:15am 5.8 0.9 1.7 75 1.7 WSW 17 24 9 13 1022.7 - 0.0
29/07:00am 5.9 0.6 1.8 75 1.7 WSW 19 28 10 15 1022.6 - 0.0
29/06:45am 6.0 0.5 1.8 74 1.7 WSW 20 28 11 15 1022.5 - 0.0
29/06:30am 6.2 0.3 1.9 74 1.8 WSW 22 32 12 17 1022.3 - 0.0
29/06:15am 6.4 -0.2 2.0 73 1.8 WSW 26 33 14 18 1022.2 - 0.0
29/06:00am 6.3 -0.3 2.0 74 1.8 WSW 26 33 14 18 1021.9 - 0.0
29/05:45am 6.2 0.3 1.9 74 1.8 WSW 22 28 12 15 1021.9 - 0.0
29/05:30am 6.2 0.3 1.9 74 1.8 WSW 22 28 12 15 1021.9 - 0.0
29/05:15am 6.4 0.1 1.8 72 1.9 WSW 24 30 13 16 1021.9 - 0.0
29/05:00am 6.7 0.5 1.9 71 2.0 W 24 32 13 17 1021.8 - 0.0
29/04:45am 7.1 0.5 2.0 70 2.1 W 26 32 14 17 1021.9 - 0.0
29/04:30am 6.9 0.7 2.0 71 2.0 W 24 30 13 16 1021.9 - 0.0
29/04:15am 6.9 0.7 1.9 70 2.1 W 24 28 13 15 1021.8 - 0.0
29/04:00am 7.2 0.6 2.0 69 2.1 W 26 32 14 17 1021.8 - 0.0
29/03:45am 7.2 0.6 2.1 70 2.1 W 26 32 14 17 1021.9 - 0.0
29/03:30am 7.1 1.2 2.0 70 2.1 W 22 30 12 16 1022.0 - 0.0
29/03:15am 7.1 1.2 1.9 69 2.1 WSW 22 28 12 15 1022.0 - 0.0
29/03:00am 7.3 1.4 1.9 68 2.2 WSW 22 30 12 16 1022.1 - 0.0
29/02:45am 7.4 1.2 1.9 68 2.3 W 24 30 13 16 1022.3 - 0.0
29/02:30am 7.5 1.6 1.8 67 2.3 W 22 30 12 16 1022.3 - 0.0
29/02:15am 7.7 1.8 1.8 66 2.4 WSW 22 30 12 16 1022.2 - 0.0
29/02:00am 7.8 1.9 1.8 66 2.5 WSW 22 30 12 16 1022.0 - 0.0
29/01:45am 8.0 2.7 1.9 65 2.5 WSW 19 28 10 15 1022.0 - 0.0
29/01:30am 8.1 2.6 1.9 65 2.6 WSW 20 28 11 15 1022.1 - 0.0
29/01:15am 8.1 2.6 1.9 65 2.6 WSW 20 30 11 16 1022.3 - 0.0
29/01:00am 8.3 2.8 1.9 64 2.7 WSW 20 30 11 16 1022.3 - 0.0
29/12:45am 8.6 2.0 2.0 63 2.8 WSW 26 37 14 20 1022.3 - 0.0
29/12:30am 8.7 1.7 2.1 63 2.8 WSW 28 39 15 21 1022.4 - 0.0
29/12:15am 8.6 1.6 1.9 63 2.8 WSW 28 39 15 21 1022.4 - 0.0
29/12:00am 8.8 1.5 2.2 63 2.8 WSW 30 43 16 23 1022.5 - 0.0
 
Date/Time
EST
Temp
°C
App
Temp
°C
Dew
Point
°C
Rel
Hum
%
Delta-T
°C
Wind Press
QNH
hPa
Press
MSL
hPa
Rain since
9am
mm
Dir  Spd
km/h
Gust
km/h
Spd
kts
Gust
kts
28/11:45pm 8.8 1.9 2.3 64 2.7 WSW 28 39 15 21 1022.5 - 0.0
28/11:30pm 8.8 1.9 2.4 64 2.7 WSW 28 41 15 22 1022.7 - 0.0
28/11:15pm 8.7 2.2 2.5 65 2.6 WSW 26 37 14 20 1022.8 - 0.0
28/11:00pm 8.6 2.4 2.4 65 2.6 WSW 24 35 13 19 1022.8 - 0.0
28/10:45pm 8.6 2.1 2.5 65 2.6 WSW 26 37 14 20 1022.7 - 0.0
28/10:30pm 8.4 3.0 2.4 66 2.5 WSW 20 28 11 15 1022.7 - 0.0
28/10:15pm 8.6 3.2 2.4 65 2.6 WSW 20 30 11 16 1022.8 - 0.0
28/10:00pm 8.6 2.8 2.5 65 2.6 WSW 22 28 12 15 1022.9 - 0.0
28/09:45pm 8.7 2.9 2.5 65 2.6 WSW 22 30 12 16 1022.8 - 0.0
28/09:30pm 8.8 3.4 2.6 65 2.6 W 20 28 11 15 1022.8 - 0.0
28/09:15pm 8.7 3.3 2.6 65 2.6 WSW 20 28 11 15 1022.8 - 0.0
28/09:00pm 8.9 3.7 2.6 64 2.7 WSW 19 28 10 15 1022.9 - 0.0
28/08:45pm 8.9 3.7 2.6 64 2.7 WSW 19 30 10 16 1022.9 - 0.0
28/08:30pm 8.7 3.5 2.7 66 2.6 WSW 19 26 10 14 1022.9 - 0.0
28/08:15pm 8.5 4.4 2.4 65 2.6 WSW 13 20 7 11 1022.9 - 0.0
28/08:00pm 8.8 4.4 2.6 65 2.6 WSW 15 19 8 10 1022.8 - 0.0
28/07:45pm 9.1 5.1 2.6 64 2.8 WSW 13 19 7 10 1022.8 - 0.0
28/07:30pm 9.9 6.2 2.6 60 3.1 W 11 19 6 10 1022.7 - 0.0
28/07:15pm 10.6 5.4 2.7 58 3.4 W 19 24 10 13 1022.6 - 0.0
28/07:00pm 11.0 5.8 2.7 56 3.6 W 19 28 10 15 1022.6 - 0.0
28/06:45pm 11.4 6.6 2.7 55 3.8 W 17 30 9 16 1022.5 - 0.0
28/06:30pm 11.8 6.1 2.7 53 4.0 W 22 35 12 19 1022.3 - 0.0
28/06:15pm 12.0 4.7 2.7 53 4.1 WSW 30 41 16 22 1022.1 - 0.0
28/06:00pm 12.2 6.5 2.7 52 4.2 WSW 22 33 12 18 1021.9 - 0.0
28/05:45pm 12.4 6.7 3.0 52 4.2 WSW 22 33 12 18 1021.6 - 0.0
28/05:30pm 12.8 7.1 3.1 51 4.3 WSW 22 32 12 17 1021.5 - 0.0
28/05:15pm 13.4 7.3 3.0 49 4.7 W 24 30 13 16 1021.3 - 0.0
28/05:00pm 14.1 8.0 3.0 47 5.0 WSW 24 39 13 21 1021.1 - 0.0
28/04:45pm 14.9 8.5 3.3 45 5.3 WSW 26 39 14 21 1021.0 - 0.0
28/04:30pm 15.6 9.3 3.8 45 5.5 W 26 37 14 20 1020.8 - 0.0
28/04:15pm 16.1 11.2 4.0 44 5.7 WSW 19 30 10 16 1020.7 - 0.0
28/04:00pm 16.5 10.6 3.9 43 5.9 WSW 24 33 13 18 1020.7 - 0.0
28/03:45pm 17.1 11.6 3.8 41 6.2 WSW 22 32 12 17 1020.7 - 0.0
28/03:30pm 17.5 11.5 3.6 39 6.5 WSW 24 33 13 18 1020.6 - 0.0
28/03:15pm 17.8 12.8 3.6 39 6.7 W 19 30 10 16 1020.5 - 0.0
28/03:00pm 17.8 12.2 3.6 39 6.7 W 22 33 12 18 1020.5 - 0.0
28/02:45pm 18.0 13.5 4.2 40 6.6 WNW 17 24 9 13 1020.5 - 0.0
28/02:30pm 17.6 12.6 3.7 39 6.5 WNW 19 32 10 17 1020.5 - 0.0
28/02:15pm 17.4 13.2 3.6 40 6.5 WNW 15 24 8 13 1020.8 - 0.0
28/02:00pm 17.3 13.5 3.7 40 6.4 WNW 13 22 7 12 1020.9 - 0.0
28/01:45pm 17.0 12.3 3.2 39 6.4 WNW 17 26 9 14 1021.1 - 0.0
28/01:30pm 16.9 12.6 3.2 40 6.3 WNW 15 20 8 11 1021.3 - 0.0
28/01:15pm 16.6 12.6 3.1 40 6.2 WNW 13 22 7 12 1021.6 - 0.0
28/01:00pm 16.5 13.0 3.3 41 6.1 WNW 11 19 6 10 1021.8 - 0.0
28/12:45pm 16.0 11.6 2.7 41 6.0 W 15 20 8 11 1022.0 - 0.0
28/12:30pm 15.6 11.2 2.9 42 5.8 WNW 15 20 8 11 1022.2 - 0.0
28/12:15pm 15.3 11.8 3.4 45 5.5 W 11 19 6 10 1022.4 - 0.0
28/12:00pm 14.8 10.9 3.6 47 5.1 WNW 13 19 7 10 1022.7 - 0.0
28/11:45am 14.6 10.9 4.2 49 4.8 W 13 19 7 10 1023.1 - 0.0
28/11:30am 14.3 10.5 4.0 50 4.7 WNW 13 19 7 10 1023.3 - 0.0
28/11:15am 14.1 10.3 4.0 50 4.6 WNW 13 19 7 10 1023.6 - 0.0
28/11:00am 14.0 10.2 3.9 50 4.6 W 13 19 7 10 1023.8 - 0.0
28/10:45am 13.5 9.7 3.7 51 4.5 WSW 13 19 7 10 1023.9 - 0.0
28/10:30am 13.0 8.4 3.5 52 4.3 W 17 26 9 14 1024.2 - 0.0
28/10:15am 12.6 7.0 3.4 53 4.1 WSW 22 30 12 16 1024.3 - 0.0
28/10:00am 12.2 7.0 3.4 55 3.9 WSW 20 30 11 16 1024.2 - 0.0
28/09:45am 11.8 6.6 3.3 56 3.8 WSW 20 30 11 16 1024.1 - 0.0
28/09:30am 11.5 6.2 3.2 56 3.7 WSW 20 30 11 16 1023.9 - 0.0
28/09:15am 11.1 6.0 3.2 58 3.5 WSW 19 28 10 15 1023.9 - 0.0
28/09:00am 10.7 5.4 3.0 59 3.4 WSW 20 30 11 16 1024.0 - 0.0
28/08:45am 10.4 5.3 3.0 60 3.2 WSW 19 28 10 15 1024.0 - 0.0
28/08:30am 9.9 4.8 2.9 62 3.0 WSW 19 28 10 15 1024.0 - 0.0
28/08:15am 9.4 5.0 2.7 63 2.9 WSW 15 24 8 13 1023.9 - 0.0
28/08:00am 9.0 4.5 2.4 63 2.8 WSW 15 20 8 11 1023.9 - 0.0
28/07:45am 8.8 3.6 2.2 63 2.8 WSW 19 28 10 15 1023.8 - 0.0
28/07:30am 8.5 1.9 2.2 64 2.6 WSW 26 37 14 20 1023.5 - 0.0
28/07:15am 8.0 1.8 2.1 66 2.5 WSW 24 30 13 16 1023.3 - 0.0
28/07:00am 7.9 3.0 2.0 66 2.5 WSW 17 22 9 12 1023.1 - 0.0
28/06:45am 7.9 2.7 2.2 67 2.4 WSW 19 28 10 15 1022.7 - 0.0

Latest Capital City Observations: Canberra | Sydney | Melbourne | Brisbane | Adelaide | Perth | Hobart | Darwin

Other Formats:

Comma delimited format used in spreadsheet applications
http://www.bom.gov.au/fwo/IDN60901/IDN60901.95757.axf

JavaScript Object Notation format (JSON) in row-major order
http://www.bom.gov.au/fwo/IDN60901/IDN60901.95757.json